sensor_id;sensor_type;location;lat;lon;timestamp;P1;durP1;ratioP1;P2;durP2;ratioP2
27983;SDS011;15317;50.360;8.726;2023-05-10T00:03:08;2.40;;;1.47;;
27983;SDS011;15317;50.360;8.726;2023-05-10T00:08:13;0.90;;;0.90;;
27983;SDS011;15317;50.360;8.726;2023-05-10T00:13:16;0.83;;;0.80;;
27983;SDS011;15317;50.360;8.726;2023-05-10T00:18:19;1.37;;;0.70;;
27983;SDS011;15317;50.360;8.726;2023-05-10T00:23:23;4.03;;;0.70;;
27983;SDS011;15317;50.360;8.726;2023-05-10T00:28:27;1.07;;;0.60;;
27983;SDS011;15317;50.360;8.726;2023-05-10T00:33:30;3.33;;;0.43;;
27983;SDS011;15317;50.360;8.726;2023-05-10T00:38:34;0.93;;;0.47;;
27983;SDS011;15317;50.360;8.726;2023-05-10T00:43:37;0.90;;;0.40;;
27983;SDS011;15317;50.360;8.726;2023-05-10T00:48:40;1.03;;;0.43;;
27983;SDS011;15317;50.360;8.726;2023-05-10T00:53:45;2.03;;;0.50;;
27983;SDS011;15317;50.360;8.726;2023-05-10T00:58:48;0.90;;;0.40;;
27983;SDS011;15317;50.360;8.726;2023-05-10T01:03:51;0.40;;;0.40;;
27983;SDS011;15317;50.360;8.726;2023-05-10T01:08:56;0.70;;;0.40;;
27983;SDS011;15317;50.360;8.726;2023-05-10T01:13:59;0.33;;;0.33;;
27983;SDS011;15317;50.360;8.726;2023-05-10T01:19:03;0.50;;;0.40;;
27983;SDS011;15317;50.360;8.726;2023-05-10T01:35:26;2.40;;;0.50;;
27983;SDS011;15317;50.360;8.726;2023-05-10T01:40:39;1.90;;;0.50;;
27983;SDS011;15317;50.360;8.726;2023-05-10T01:45:50;2.50;;;0.37;;
27983;SDS011;15317;50.360;8.726;2023-05-10T01:51:03;0.63;;;0.40;;
27983;SDS011;15317;50.360;8.726;2023-05-10T01:56:08;0.43;;;0.40;;
27983;SDS011;15317;50.360;8.726;2023-05-10T02:01:13;0.63;;;0.50;;
27983;SDS011;15317;50.360;8.726;2023-05-10T02:06:19;3.20;;;0.60;;
27983;SDS011;15317;50.360;8.726;2023-05-10T02:11:24;1.90;;;0.50;;
27983;SDS011;15317;50.360;8.726;2023-05-10T02:16:28;0.50;;;0.43;;
27983;SDS011;15317;50.360;8.726;2023-05-10T02:21:34;0.73;;;0.47;;
27983;SDS011;15317;50.360;8.726;2023-05-10T02:26:39;0.63;;;0.50;;
27983;SDS011;15317;50.360;8.726;2023-05-10T02:31:44;0.43;;;0.43;;
27983;SDS011;15317;50.360;8.726;2023-05-10T02:36:50;0.50;;;0.50;;
27983;SDS011;15317;50.360;8.726;2023-05-10T02:41:54;0.83;;;0.50;;
27983;SDS011;15317;50.360;8.726;2023-05-10T02:47:00;2.03;;;0.73;;
27983;SDS011;15317;50.360;8.726;2023-05-10T02:52:05;1.23;;;0.80;;
27983;SDS011;15317;50.360;8.726;2023-05-10T02:57:11;1.67;;;0.70;;
27983;SDS011;15317;50.360;8.726;2023-05-10T03:02:20;1.23;;;0.70;;
27983;SDS011;15317;50.360;8.726;2023-05-10T03:07:25;0.67;;;0.60;;
27983;SDS011;15317;50.360;8.726;2023-05-10T03:12:31;2.67;;;0.80;;
27983;SDS011;15317;50.360;8.726;2023-05-10T03:17:45;2.70;;;1.10;;
27983;SDS011;15317;50.360;8.726;2023-05-10T03:23:02;2.83;;;0.90;;
27983;SDS011;15317;50.360;8.726;2023-05-10T03:28:10;1.10;;;1.00;;
27983;SDS011;15317;50.360;8.726;2023-05-10T03:33:14;2.07;;;0.90;;
27983;SDS011;15317;50.360;8.726;2023-05-10T03:38:19;2.40;;;1.20;;
27983;SDS011;15317;50.360;8.726;2023-05-10T03:43:22;1.40;;;0.80;;
27983;SDS011;15317;50.360;8.726;2023-05-10T03:48:25;1.93;;;1.03;;
27983;SDS011;15317;50.360;8.726;2023-05-10T03:53:29;1.93;;;1.10;;
27983;SDS011;15317;50.360;8.726;2023-05-10T03:58:32;4.40;;;1.60;;
27983;SDS011;15317;50.360;8.726;2023-05-10T04:03:36;3.00;;;1.80;;
27983;SDS011;15317;50.360;8.726;2023-05-10T04:08:41;1.60;;;1.50;;
27983;SDS011;15317;50.360;8.726;2023-05-10T04:13:44;4.70;;;1.60;;
27983;SDS011;15317;50.360;8.726;2023-05-10T04:18:47;2.97;;;1.67;;
27983;SDS011;15317;50.360;8.726;2023-05-10T04:23:52;2.10;;;1.57;;
27983;SDS011;15317;50.360;8.726;2023-05-10T04:28:55;2.83;;;2.10;;
27983;SDS011;15317;50.360;8.726;2023-05-10T04:33:58;3.40;;;2.40;;
27983;SDS011;15317;50.360;8.726;2023-05-10T04:39:02;3.77;;;2.50;;
27983;SDS011;15317;50.360;8.726;2023-05-10T04:44:06;2.70;;;2.50;;
27983;SDS011;15317;50.360;8.726;2023-05-10T04:49:09;3.20;;;2.20;;
27983;SDS011;15317;50.360;8.726;2023-05-10T04:54:14;3.90;;;2.20;;
27983;SDS011;15317;50.360;8.726;2023-05-10T04:59:17;2.03;;;1.80;;
27983;SDS011;15317;50.360;8.726;2023-05-10T05:04:20;2.30;;;2.10;;
27983;SDS011;15317;50.360;8.726;2023-05-10T05:09:26;1.70;;;1.60;;
27983;SDS011;15317;50.360;8.726;2023-05-10T05:14:29;2.67;;;1.27;;
27983;SDS011;15317;50.360;8.726;2023-05-10T05:19:32;1.20;;;1.10;;
27983;SDS011;15317;50.360;8.726;2023-05-10T05:24:36;1.00;;;0.80;;
27983;SDS011;15317;50.360;8.726;2023-05-10T05:29:40;1.70;;;1.17;;
27983;SDS011;15317;50.360;8.726;2023-05-10T05:34:43;1.40;;;0.90;;
27983;SDS011;15317;50.360;8.726;2023-05-10T05:39:48;3.50;;;1.13;;
27983;SDS011;15317;50.360;8.726;2023-05-10T05:44:51;1.30;;;1.00;;
27983;SDS011;15317;50.360;8.726;2023-05-10T05:49:54;1.70;;;1.30;;
27983;SDS011;15317;50.360;8.726;2023-05-10T05:54:59;3.03;;;1.40;;
27983;SDS011;15317;50.360;8.726;2023-05-10T06:00:02;1.67;;;0.97;;
27983;SDS011;15317;50.360;8.726;2023-05-10T06:05:06;2.30;;;0.80;;
27983;SDS011;15317;50.360;8.726;2023-05-10T06:10:11;1.97;;;1.03;;
27983;SDS011;15317;50.360;8.726;2023-05-10T06:15:14;1.70;;;0.73;;
27983;SDS011;15317;50.360;8.726;2023-05-10T06:20:18;1.53;;;0.83;;
27983;SDS011;15317;50.360;8.726;2023-05-10T06:25:22;1.50;;;0.70;;
27983;SDS011;15317;50.360;8.726;2023-05-10T06:49:36;1.20;;;0.80;;
27983;SDS011;15317;50.360;8.726;2023-05-10T06:54:40;1.17;;;0.60;;
27983;SDS011;15317;50.360;8.726;2023-05-10T06:59:48;1.77;;;0.70;;
27983;SDS011;15317;50.360;8.726;2023-05-10T07:05:01;0.60;;;0.60;;
27983;SDS011;15317;50.360;8.726;2023-05-10T07:10:06;2.10;;;0.60;;
27983;SDS011;15317;50.360;8.726;2023-05-10T07:15:18;1.83;;;0.70;;
27983;SDS011;15317;50.360;8.726;2023-05-10T07:20:31;2.23;;;0.70;;
27983;SDS011;15317;50.360;8.726;2023-05-10T07:31:25;0.77;;;0.70;;
27983;SDS011;15317;50.360;8.726;2023-05-10T07:42:58;1.27;;;0.80;;
27983;SDS011;15317;50.360;8.726;2023-05-10T07:48:01;1.20;;;1.10;;
27983;SDS011;15317;50.360;8.726;2023-05-10T07:53:04;1.20;;;1.10;;
27983;SDS011;15317;50.360;8.726;2023-05-10T07:58:09;2.57;;;1.43;;
27983;SDS011;15317;50.360;8.726;2023-05-10T08:03:12;1.70;;;1.53;;
27983;SDS011;15317;50.360;8.726;2023-05-10T08:08:15;2.63;;;2.43;;
27983;SDS011;15317;50.360;8.726;2023-05-10T08:13:20;2.50;;;2.30;;
27983;SDS011;15317;50.360;8.726;2023-05-10T08:18:23;2.70;;;2.50;;
27983;SDS011;15317;50.360;8.726;2023-05-10T08:23:27;4.40;;;2.60;;
27983;SDS011;15317;50.360;8.726;2023-05-10T08:28:31;3.40;;;2.70;;
27983;SDS011;15317;50.360;8.726;2023-05-10T08:33:34;3.63;;;3.00;;
27983;SDS011;15317;50.360;8.726;2023-05-10T08:38:37;2.90;;;2.60;;
27983;SDS011;15317;50.360;8.726;2023-05-10T08:43:41;3.60;;;3.20;;
27983;SDS011;15317;50.360;8.726;2023-05-10T08:48:48;2.77;;;2.57;;
27983;SDS011;15317;50.360;8.726;2023-05-10T08:53:53;3.00;;;2.80;;
27983;SDS011;15317;50.360;8.726;2023-05-10T08:58:58;4.60;;;3.27;;
27983;SDS011;15317;50.360;8.726;2023-05-10T09:04:01;3.27;;;2.87;;
27983;SDS011;15317;50.360;8.726;2023-05-10T09:09:06;3.60;;;3.30;;
27983;SDS011;15317;50.360;8.726;2023-05-10T09:14:10;3.30;;;2.10;;
27983;SDS011;15317;50.360;8.726;2023-05-10T09:19:15;3.10;;;2.07;;
27983;SDS011;15317;50.360;8.726;2023-05-10T09:24:18;3.33;;;2.10;;
27983;SDS011;15317;50.360;8.726;2023-05-10T09:29:22;4.10;;;2.73;;
27983;SDS011;15317;50.360;8.726;2023-05-10T09:34:28;4.20;;;2.83;;
27983;SDS011;15317;50.360;8.726;2023-05-10T09:39:32;3.50;;;2.03;;
27983;SDS011;15317;50.360;8.726;2023-05-10T09:44:37;3.93;;;2.17;;
27983;SDS011;15317;50.360;8.726;2023-05-10T09:49:42;3.23;;;2.40;;
27983;SDS011;15317;50.360;8.726;2023-05-10T09:54:47;2.30;;;1.80;;
27983;SDS011;15317;50.360;8.726;2023-05-10T09:59:56;2.90;;;2.30;;
27983;SDS011;15317;50.360;8.726;2023-05-10T10:05:03;2.07;;;1.97;;
27983;SDS011;15317;50.360;8.726;2023-05-10T10:10:07;1.70;;;1.60;;
27983;SDS011;15317;50.360;8.726;2023-05-10T10:15:14;2.03;;;1.80;;
27983;SDS011;15317;50.360;8.726;2023-05-10T10:20:18;2.00;;;1.90;;
27983;SDS011;15317;50.360;8.726;2023-05-10T10:25:22;3.30;;;1.90;;
27983;SDS011;15317;50.360;8.726;2023-05-10T10:30:28;2.63;;;1.90;;
27983;SDS011;15317;50.360;8.726;2023-05-10T10:35:38;1.60;;;1.40;;
27983;SDS011;15317;50.360;8.726;2023-05-10T10:40:42;1.93;;;1.60;;
27983;SDS011;15317;50.360;8.726;2023-05-10T10:45:48;1.83;;;1.50;;
27983;SDS011;15317;50.360;8.726;2023-05-10T10:51:12;1.87;;;1.60;;
27983;SDS011;15317;50.360;8.726;2023-05-10T10:56:16;3.50;;;1.40;;
27983;SDS011;15317;50.360;8.726;2023-05-10T11:01:27;6.20;;;1.50;;
27983;SDS011;15317;50.360;8.726;2023-05-10T11:06:35;3.17;;;1.40;;
27983;SDS011;15317;50.360;8.726;2023-05-10T11:11:48;2.63;;;2.23;;
27983;SDS011;15317;50.360;8.726;2023-05-10T11:16:54;3.27;;;1.60;;
27983;SDS011;15317;50.360;8.726;2023-05-10T11:22:13;2.00;;;1.52;;
27983;SDS011;15317;50.360;8.726;2023-05-10T11:27:16;4.80;;;1.58;;
27983;SDS011;15317;50.360;8.726;2023-05-10T11:32:21;2.37;;;1.50;;
27983;SDS011;15317;50.360;8.726;2023-05-10T11:37:27;1.40;;;0.70;;
27983;SDS011;15317;50.360;8.726;2023-05-10T11:42:34;2.13;;;1.40;;
27983;SDS011;15317;50.360;8.726;2023-05-10T11:47:38;1.00;;;0.80;;
27983;SDS011;15317;50.360;8.726;2023-05-10T11:52:43;0.73;;;0.70;;
27983;SDS011;15317;50.360;8.726;2023-05-10T11:57:46;1.07;;;0.80;;
27983;SDS011;15317;50.360;8.726;2023-05-10T12:02:52;3.50;;;0.93;;
27983;SDS011;15317;50.360;8.726;2023-05-10T12:08:10;4.80;;;1.33;;
27983;SDS011;15317;50.360;8.726;2023-05-10T12:13:13;1.27;;;0.73;;
27983;SDS011;15317;50.360;8.726;2023-05-10T12:18:22;1.10;;;0.90;;
27983;SDS011;15317;50.360;8.726;2023-05-10T12:23:27;2.83;;;0.90;;
27983;SDS011;15317;50.360;8.726;2023-05-10T12:28:30;2.50;;;0.80;;
27983;SDS011;15317;50.360;8.726;2023-05-10T12:33:39;1.00;;;0.70;;
27983;SDS011;15317;50.360;8.726;2023-05-10T12:38:44;1.63;;;0.90;;
27983;SDS011;15317;50.360;8.726;2023-05-10T12:43:49;1.60;;;1.10;;
27983;SDS011;15317;50.360;8.726;2023-05-10T12:48:55;1.17;;;0.90;;
27983;SDS011;15317;50.360;8.726;2023-05-10T12:54:09;2.30;;;0.77;;
27983;SDS011;15317;50.360;8.726;2023-05-10T12:59:13;1.30;;;0.90;;
27983;SDS011;15317;50.360;8.726;2023-05-10T13:04:17;1.33;;;0.80;;
27983;SDS011;15317;50.360;8.726;2023-05-10T13:09:21;1.23;;;0.80;;
27983;SDS011;15317;50.360;8.726;2023-05-10T13:14:24;1.83;;;0.80;;
27983;SDS011;15317;50.360;8.726;2023-05-10T13:19:29;1.50;;;0.63;;
27983;SDS011;15317;50.360;8.726;2023-05-10T13:24:32;2.33;;;0.90;;
27983;SDS011;15317;50.360;8.726;2023-05-10T13:29:35;0.83;;;0.70;;
27983;SDS011;15317;50.360;8.726;2023-05-10T13:34:39;0.67;;;0.60;;
27983;SDS011;15317;50.360;8.726;2023-05-10T13:39:42;1.07;;;0.77;;
27983;SDS011;15317;50.360;8.726;2023-05-10T13:44:45;0.67;;;0.60;;
27983;SDS011;15317;50.360;8.726;2023-05-10T13:49:50;1.60;;;0.73;;
27983;SDS011;15317;50.360;8.726;2023-05-10T13:54:53;3.20;;;0.80;;
27983;SDS011;15317;50.360;8.726;2023-05-10T13:59:58;1.70;;;1.30;;
27983;SDS011;15317;50.360;8.726;2023-05-10T14:05:02;2.13;;;1.53;;
27983;SDS011;15317;50.360;8.726;2023-05-10T14:10:06;1.67;;;1.53;;
27983;SDS011;15317;50.360;8.726;2023-05-10T14:15:10;1.80;;;1.70;;
27983;SDS011;15317;50.360;8.726;2023-05-10T14:20:15;1.77;;;1.60;;
27983;SDS011;15317;50.360;8.726;2023-05-10T14:25:18;1.83;;;1.40;;
27983;SDS011;15317;50.360;8.726;2023-05-10T14:30:21;1.73;;;1.60;;
27983;SDS011;15317;50.360;8.726;2023-05-10T14:35:26;2.77;;;1.53;;
27983;SDS011;15317;50.360;8.726;2023-05-10T14:40:29;6.80;;;2.20;;
27983;SDS011;15317;50.360;8.726;2023-05-10T14:45:33;2.53;;;2.00;;
27983;SDS011;15317;50.360;8.726;2023-05-10T14:50:37;3.40;;;2.53;;
27983;SDS011;15317;50.360;8.726;2023-05-10T14:55:41;5.30;;;2.60;;
27983;SDS011;15317;50.360;8.726;2023-05-10T15:00:44;3.33;;;2.10;;
27983;SDS011;15317;50.360;8.726;2023-05-10T15:05:49;2.37;;;1.87;;
27983;SDS011;15317;50.360;8.726;2023-05-10T15:10:53;1.77;;;1.20;;
27983;SDS011;15317;50.360;8.726;2023-05-10T15:15:57;1.40;;;1.27;;
27983;SDS011;15317;50.360;8.726;2023-05-10T15:21:02;1.20;;;1.00;;
27983;SDS011;15317;50.360;8.726;2023-05-10T15:26:05;6.27;;;1.90;;
27983;SDS011;15317;50.360;8.726;2023-05-10T15:31:09;1.50;;;0.93;;
27983;SDS011;15317;50.360;8.726;2023-05-10T15:36:14;1.47;;;0.80;;
27983;SDS011;15317;50.360;8.726;2023-05-10T15:41:19;1.97;;;0.70;;
27983;SDS011;15317;50.360;8.726;2023-05-10T15:46:22;1.60;;;0.73;;
27983;SDS011;15317;50.360;8.726;2023-05-10T15:51:27;2.37;;;0.90;;
27983;SDS011;15317;50.360;8.726;2023-05-10T15:56:30;1.90;;;0.83;;
27983;SDS011;15317;50.360;8.726;2023-05-10T16:01:33;2.93;;;0.90;;
27983;SDS011;15317;50.360;8.726;2023-05-10T16:06:38;0.97;;;0.83;;
27983;SDS011;15317;50.360;8.726;2023-05-10T16:11:42;1.57;;;0.83;;
27983;SDS011;15317;50.360;8.726;2023-05-10T16:16:45;2.10;;;0.80;;
27983;SDS011;15317;50.360;8.726;2023-05-10T16:21:51;2.67;;;1.00;;
27983;SDS011;15317;50.360;8.726;2023-05-10T16:26:54;1.13;;;0.90;;
27983;SDS011;15317;50.360;8.726;2023-05-10T16:31:57;1.23;;;0.80;;
27983;SDS011;15317;50.360;8.726;2023-05-10T16:37:02;0.80;;;0.80;;
27983;SDS011;15317;50.360;8.726;2023-05-10T16:42:05;2.10;;;0.87;;
27983;SDS011;15317;50.360;8.726;2023-05-10T16:47:09;3.80;;;0.80;;
27983;SDS011;15317;50.360;8.726;2023-05-10T16:52:13;1.77;;;0.80;;
27983;SDS011;15317;50.360;8.726;2023-05-10T16:57:16;1.27;;;0.80;;
27983;SDS011;15317;50.360;8.726;2023-05-10T17:02:20;15.93;;;8.03;;
27983;SDS011;15317;50.360;8.726;2023-05-10T17:07:25;6.03;;;2.83;;
27983;SDS011;15317;50.360;8.726;2023-05-10T17:12:30;7.67;;;4.60;;
27983;SDS011;15317;50.360;8.726;2023-05-10T17:17:33;13.07;;;6.37;;
27983;SDS011;15317;50.360;8.726;2023-05-10T17:22:38;15.90;;;10.13;;
27983;SDS011;15317;50.360;8.726;2023-05-10T17:27:41;31.90;;;16.53;;
27983;SDS011;15317;50.360;8.726;2023-05-10T17:32:44;3.70;;;2.00;;
27983;SDS011;15317;50.360;8.726;2023-05-10T17:37:49;3.27;;;1.90;;
27983;SDS011;15317;50.360;8.726;2023-05-10T17:42:52;1.90;;;1.70;;
27983;SDS011;15317;50.360;8.726;2023-05-10T17:47:55;2.13;;;1.83;;
27983;SDS011;15317;50.360;8.726;2023-05-10T17:53:00;2.33;;;1.80;;
27983;SDS011;15317;50.360;8.726;2023-05-10T17:58:03;2.13;;;1.80;;
27983;SDS011;15317;50.360;8.726;2023-05-10T18:03:06;3.37;;;2.10;;
27983;SDS011;15317;50.360;8.726;2023-05-10T18:08:11;7.77;;;2.93;;
27983;SDS011;15317;50.360;8.726;2023-05-10T18:13:14;3.70;;;1.87;;
27983;SDS011;15317;50.360;8.726;2023-05-10T18:18:17;3.90;;;2.20;;
27983;SDS011;15317;50.360;8.726;2023-05-10T18:23:22;2.57;;;2.00;;
27983;SDS011;15317;50.360;8.726;2023-05-10T18:28:26;3.43;;;1.83;;
27983;SDS011;15317;50.360;8.726;2023-05-10T18:33:29;2.03;;;1.83;;
27983;SDS011;15317;50.360;8.726;2023-05-10T18:38:34;3.50;;;2.73;;
27983;SDS011;15317;50.360;8.726;2023-05-10T18:43:37;5.80;;;3.10;;
27983;SDS011;15317;50.360;8.726;2023-05-10T18:48:40;5.77;;;3.00;;
27983;SDS011;15317;50.360;8.726;2023-05-10T18:53:45;5.03;;;3.43;;
27983;SDS011;15317;50.360;8.726;2023-05-10T18:58:48;4.83;;;3.87;;
27983;SDS011;15317;50.360;8.726;2023-05-10T19:03:52;3.70;;;3.30;;
27983;SDS011;15317;50.360;8.726;2023-05-10T19:08:56;7.67;;;3.13;;
27983;SDS011;15317;50.360;8.726;2023-05-10T19:13:59;3.93;;;3.00;;
27983;SDS011;15317;50.360;8.726;2023-05-10T19:19:03;4.00;;;2.67;;
27983;SDS011;15317;50.360;8.726;2023-05-10T19:24:09;3.83;;;2.60;;
27983;SDS011;15317;50.360;8.726;2023-05-10T19:29:13;4.23;;;2.50;;
27983;SDS011;15317;50.360;8.726;2023-05-10T19:34:16;2.50;;;2.30;;
27983;SDS011;15317;50.360;8.726;2023-05-10T19:39:21;3.80;;;2.70;;
27983;SDS011;15317;50.360;8.726;2023-05-10T19:44:24;4.07;;;2.80;;
27983;SDS011;15317;50.360;8.726;2023-05-10T19:49:27;7.13;;;3.00;;
27983;SDS011;15317;50.360;8.726;2023-05-10T19:54:32;2.50;;;2.30;;
27983;SDS011;15317;50.360;8.726;2023-05-10T19:59:35;2.60;;;2.40;;
27983;SDS011;15317;50.360;8.726;2023-05-10T20:04:38;3.80;;;2.50;;
27983;SDS011;15317;50.360;8.726;2023-05-10T20:09:42;2.50;;;2.13;;
27983;SDS011;15317;50.360;8.726;2023-05-10T20:14:46;3.10;;;2.47;;
27983;SDS011;15317;50.360;8.726;2023-05-10T20:19:49;2.47;;;2.27;;
27983;SDS011;15317;50.360;8.726;2023-05-10T20:24:54;3.90;;;2.87;;
27983;SDS011;15317;50.360;8.726;2023-05-10T20:29:59;3.83;;;2.27;;
27983;SDS011;15317;50.360;8.726;2023-05-10T20:35:02;4.33;;;2.73;;
27983;SDS011;15317;50.360;8.726;2023-05-10T20:40:08;4.30;;;3.00;;
27983;SDS011;15317;50.360;8.726;2023-05-10T20:45:12;3.60;;;3.20;;
27983;SDS011;15317;50.360;8.726;2023-05-10T20:50:15;3.50;;;3.20;;
27983;SDS011;15317;50.360;8.726;2023-05-10T20:55:20;3.10;;;2.30;;
27983;SDS011;15317;50.360;8.726;2023-05-10T21:00:23;3.50;;;2.43;;
27983;SDS011;15317;50.360;8.726;2023-05-10T21:05:26;2.23;;;1.97;;
27983;SDS011;15317;50.360;8.726;2023-05-10T21:10:31;3.00;;;1.87;;
27983;SDS011;15317;50.360;8.726;2023-05-10T21:15:34;2.60;;;2.03;;
27983;SDS011;15317;50.360;8.726;2023-05-10T21:20:37;4.43;;;2.10;;
27983;SDS011;15317;50.360;8.726;2023-05-10T21:25:42;3.37;;;2.10;;
27983;SDS011;15317;50.360;8.726;2023-05-10T21:30:45;4.00;;;2.70;;
27983;SDS011;15317;50.360;8.726;2023-05-10T21:35:48;6.60;;;2.90;;
27983;SDS011;15317;50.360;8.726;2023-05-10T21:40:53;5.63;;;2.50;;
27983;SDS011;15317;50.360;8.726;2023-05-10T21:45:57;3.80;;;3.47;;
27983;SDS011;15317;50.360;8.726;2023-05-10T21:51:00;4.67;;;3.50;;
27983;SDS011;15317;50.360;8.726;2023-05-10T21:56:05;4.53;;;4.13;;
27983;SDS011;15317;50.360;8.726;2023-05-10T22:01:08;5.73;;;3.60;;
27983;SDS011;15317;50.360;8.726;2023-05-10T22:06:12;5.20;;;3.57;;
27983;SDS011;15317;50.360;8.726;2023-05-10T22:11:16;3.90;;;3.60;;
27983;SDS011;15317;50.360;8.726;2023-05-10T22:16:20;4.20;;;3.90;;
27983;SDS011;15317;50.360;8.726;2023-05-10T22:21:23;4.77;;;3.60;;
27983;SDS011;15317;50.360;8.726;2023-05-10T22:26:28;6.80;;;3.40;;
27983;SDS011;15317;50.360;8.726;2023-05-10T22:31:31;6.33;;;3.77;;
27983;SDS011;15317;50.360;8.726;2023-05-10T22:36:35;4.93;;;3.63;;
27983;SDS011;15317;50.360;8.726;2023-05-10T22:41:40;3.00;;;2.70;;
27983;SDS011;15317;50.360;8.726;2023-05-10T22:46:43;3.87;;;3.00;;
27983;SDS011;15317;50.360;8.726;2023-05-10T22:51:46;5.43;;;3.07;;
27983;SDS011;15317;50.360;8.726;2023-05-10T22:56:51;3.67;;;3.30;;
27983;SDS011;15317;50.360;8.726;2023-05-10T23:01:55;5.43;;;3.00;;
27983;SDS011;15317;50.360;8.726;2023-05-10T23:06:58;3.73;;;3.40;;
27983;SDS011;15317;50.360;8.726;2023-05-10T23:12:03;3.47;;;3.17;;
27983;SDS011;15317;50.360;8.726;2023-05-10T23:17:06;3.83;;;3.40;;
27983;SDS011;15317;50.360;8.726;2023-05-10T23:22:10;5.17;;;3.67;;
27983;SDS011;15317;50.360;8.726;2023-05-10T23:27:14;6.90;;;4.37;;
27983;SDS011;15317;50.360;8.726;2023-05-10T23:32:17;4.83;;;4.37;;
27983;SDS011;15317;50.360;8.726;2023-05-10T23:37:21;4.63;;;4.23;;
27983;SDS011;15317;50.360;8.726;2023-05-10T23:42:25;7.77;;;5.30;;
27983;SDS011;15317;50.360;8.726;2023-05-10T23:47:28;6.23;;;5.63;;
27983;SDS011;15317;50.360;8.726;2023-05-10T23:52:31;8.10;;;6.00;;
27983;SDS011;15317;50.360;8.726;2023-05-10T23:57:36;9.53;;;6.10;;
